createdAt,value
2023-01-08T00:04:11.968Z,19.33
2023-01-08T00:09:14.267Z,19.58
2023-01-08T00:14:16.374Z,20.00
2023-01-08T00:19:19.122Z,19.83
2023-01-08T00:24:21.243Z,19.42
2023-01-08T00:29:23.367Z,20.00
2023-01-08T00:34:25.913Z,19.17
2023-01-08T00:39:28.028Z,19.45
2023-01-08T00:44:30.165Z,19.77
2023-01-08T00:49:32.274Z,19.10
2023-01-08T00:54:34.398Z,20.20
2023-01-08T00:59:36.510Z,20.80
2023-01-08T01:04:38.711Z,19.85
2023-01-08T01:09:40.804Z,20.27
2023-01-08T01:14:42.986Z,19.95
2023-01-08T01:19:45.147Z,19.80
2023-01-08T01:24:47.250Z,19.95
2023-01-08T01:29:49.396Z,19.15
2023-01-08T01:34:52.028Z,19.62
2023-01-08T01:39:56.175Z,18.92
2023-01-08T01:44:58.401Z,18.67
2023-01-08T01:50:20.287Z,18.92
2023-01-08T01:55:22.544Z,19.12
2023-01-08T02:00:26.367Z,17.60
2023-01-08T02:05:39.153Z,19.12
2023-01-08T02:11:06.773Z,16.63
2023-01-08T02:16:38.233Z,18.10
2023-01-08T02:22:02.743Z,17.95
2023-01-08T02:27:08.197Z,17.62
2023-01-08T02:32:10.609Z,17.05
2023-01-08T02:37:12.928Z,16.90
2023-01-08T02:42:29.866Z,16.98
2023-01-08T02:47:44.729Z,17.12
2023-01-08T02:53:03.183Z,16.77
2023-01-08T02:58:06.264Z,15.85
2023-01-08T03:03:19.697Z,15.73
2023-01-08T03:08:23.462Z,16.42
2023-01-08T03:13:33.022Z,15.95
2023-01-08T03:18:41.146Z,16.75
2023-01-08T03:23:45.370Z,18.10
2023-01-08T03:28:52.944Z,16.50
2023-01-08T03:33:56.479Z,17.90
2023-01-08T03:39:12.412Z,15.65
2023-01-08T03:44:14.654Z,17.52
2023-01-08T03:49:17.792Z,17.52
2023-01-08T03:54:23.820Z,17.13
2023-01-08T03:59:25.965Z,17.10
2023-01-08T04:04:28.214Z,17.23
2023-01-08T04:09:31.673Z,17.60
2023-01-08T04:14:33.791Z,17.50
2023-01-08T04:19:35.843Z,17.80
2023-01-08T04:24:37.996Z,17.45
2023-01-08T04:29:40.098Z,17.48
2023-01-08T04:34:42.213Z,17.00
2023-01-08T04:39:44.311Z,17.33
2023-01-08T04:44:46.404Z,18.13
2023-01-08T04:49:48.522Z,17.58
2023-01-08T04:54:50.635Z,17.70
2023-01-08T04:59:52.893Z,17.10
2023-01-08T05:04:55.007Z,17.60
2023-01-08T05:09:57.108Z,16.57
2023-01-08T05:14:59.216Z,18.02
2023-01-08T05:20:01.364Z,17.45
2023-01-08T05:25:03.553Z,17.27
2023-01-08T05:30:06.457Z,18.55
2023-01-08T05:35:09.154Z,17.20
2023-01-08T05:40:11.846Z,18.40
2023-01-08T05:45:15.730Z,17.87
2023-01-08T05:50:17.881Z,17.25
2023-01-08T05:55:20.001Z,16.90
2023-01-08T06:00:22.252Z,16.23
2023-01-08T06:05:24.519Z,18.08
2023-01-08T06:10:27.326Z,17.37
2023-01-08T06:15:29.378Z,17.52
2023-01-08T06:20:31.462Z,17.35
2023-01-08T06:25:33.665Z,17.00
2023-01-08T06:30:38.412Z,17.27
2023-01-08T06:35:40.544Z,17.50
2023-01-08T06:40:42.963Z,16.20
2023-01-08T06:45:45.052Z,18.05
2023-01-08T06:50:47.160Z,17.33
2023-01-08T06:55:50.744Z,17.92
2023-01-08T07:00:52.886Z,18.08
2023-01-08T07:05:55.924Z,18.60
2023-01-08T07:11:03.680Z,17.65
2023-01-08T07:16:09.883Z,17.70
2023-01-08T07:21:12.025Z,18.27
2023-01-08T07:26:14.160Z,17.40
2023-01-08T07:31:16.351Z,18.85
2023-01-08T07:36:22.420Z,19.85
2023-01-08T07:41:24.588Z,19.37
2023-01-08T07:46:26.890Z,19.27
2023-01-08T07:51:29.934Z,20.92
2023-01-08T07:56:32.180Z,20.95
2023-01-08T08:01:34.388Z,20.90
2023-01-08T08:06:36.551Z,19.17
2023-01-08T08:11:38.732Z,19.77
2023-01-08T08:16:40.866Z,20.98
2023-01-08T08:21:42.963Z,19.08
2023-01-08T08:26:45.092Z,20.10
2023-01-08T08:31:47.237Z,19.67
2023-01-08T08:36:49.615Z,18.23
2023-01-08T08:41:52.053Z,19.83
2023-01-08T08:46:54.270Z,18.62
2023-01-08T08:51:56.331Z,19.37
2023-01-08T08:56:58.437Z,18.57
2023-01-08T09:02:00.669Z,18.35
2023-01-08T09:07:03.189Z,17.52
2023-01-08T09:12:05.562Z,17.85
2023-01-08T09:17:07.791Z,18.85
2023-01-08T09:22:09.859Z,18.03
2023-01-08T09:27:12.254Z,18.12
2023-01-08T09:32:14.459Z,17.77
2023-01-08T09:37:16.852Z,17.95
2023-01-08T09:42:23.048Z,17.58
2023-01-08T09:47:33.118Z,16.77
2023-01-08T09:52:35.224Z,17.20
2023-01-08T09:57:37.420Z,16.77
2023-01-08T10:02:40.993Z,18.25
2023-01-08T10:07:44.401Z,17.08
2023-01-08T10:12:47.545Z,18.03
2023-01-08T10:18:03.843Z,16.85
2023-01-08T10:23:14.254Z,17.37
2023-01-08T10:28:30.960Z,17.40
2023-01-08T10:33:44.891Z,17.60
2023-01-08T10:39:09.525Z,18.47
2023-01-08T10:44:21.514Z,17.15
2023-01-08T10:49:28.908Z,17.80
2023-01-08T10:54:36.517Z,17.30
2023-01-08T10:59:42.766Z,16.85
2023-01-08T11:04:51.481Z,17.93
2023-01-08T11:09:54.908Z,17.62
2023-01-08T11:14:57.436Z,17.67
2023-01-08T11:20:20.971Z,18.30
2023-01-08T11:25:30.140Z,17.62
2023-01-08T11:30:36.413Z,18.10
2023-01-08T11:35:48.476Z,18.75
2023-01-08T11:40:52.102Z,19.25
2023-01-08T11:46:16.698Z,19.12
2023-01-08T11:51:30.988Z,19.10
2023-01-08T11:56:46.008Z,19.93
2023-01-08T12:02:21.202Z,19.98
2023-01-08T12:07:26.300Z,20.45
2023-01-08T12:12:47.229Z,19.10
2023-01-08T12:18:17.453Z,20.58
2023-01-08T12:23:57.899Z,21.20
2023-01-08T12:29:07.227Z,21.45
2023-01-08T12:34:21.589Z,20.95
2023-01-08T12:39:34.086Z,20.40
2023-01-08T12:44:37.743Z,20.73
2023-01-08T12:50:09.761Z,21.00
2023-01-08T12:55:27.679Z,20.48
2023-01-08T13:00:46.007Z,21.67
2023-01-08T13:05:49.376Z,21.05
2023-01-08T13:10:54.366Z,21.70
2023-01-08T13:16:19.028Z,21.20
2023-01-08T13:21:30.984Z,21.05
2023-01-08T13:26:36.744Z,22.08
2023-01-08T13:31:40.888Z,22.67
2023-01-08T13:36:43.071Z,20.67
2023-01-08T13:42:29.409Z,21.97
2023-01-08T13:47:34.546Z,21.58
2023-01-08T13:52:42.689Z,22.30
2023-01-08T13:57:49.946Z,23.40
2023-01-08T14:02:54.988Z,24.35
2023-01-08T14:14:13.896Z,23.30
2023-01-08T14:19:19.510Z,24.35
2023-01-08T14:24:24.911Z,25.58
2023-01-08T14:29:30.887Z,25.17
2023-01-08T14:34:37.742Z,26.10
2023-01-08T14:39:39.979Z,26.65
2023-01-08T14:44:46.320Z,27.33
2023-01-08T14:49:53.806Z,27.05
2023-01-08T14:55:03.441Z,25.98
2023-01-08T15:00:09.116Z,27.53
2023-01-08T15:05:23.312Z,28.60
2023-01-08T15:10:40.655Z,29.23
2023-01-08T15:15:57.716Z,29.15
2023-01-08T15:20:59.995Z,28.60
2023-01-08T15:26:02.347Z,28.93
2023-01-08T15:31:04.575Z,28.92
2023-01-08T15:36:06.922Z,29.08
2023-01-08T15:41:14.337Z,30.00
2023-01-08T15:46:16.598Z,28.67
2023-01-08T15:51:18.807Z,30.47
2023-01-08T15:56:20.968Z,30.05
2023-01-08T16:01:23.318Z,29.37
2023-01-08T16:06:25.890Z,28.65
2023-01-08T16:11:28.286Z,30.12
2023-01-08T16:16:30.808Z,28.67
2023-01-08T16:21:33.012Z,29.87
2023-01-08T16:26:35.753Z,29.00
2023-01-08T16:31:38.565Z,28.52
2023-01-08T16:36:41.162Z,28.77
2023-01-08T16:41:43.921Z,28.67
2023-01-08T16:46:47.212Z,28.58
2023-01-08T16:51:50.459Z,28.83
2023-01-08T16:56:55.906Z,29.05
2023-01-08T17:01:58.050Z,29.80
2023-01-08T17:07:00.247Z,28.60
2023-01-08T17:12:02.667Z,28.00
2023-01-08T17:17:04.889Z,28.40
2023-01-08T17:22:07.103Z,27.40
2023-01-08T17:27:11.694Z,28.85
2023-01-08T17:32:14.445Z,28.80
2023-01-08T17:37:16.824Z,28.62
2023-01-08T17:42:24.996Z,27.37
2023-01-08T17:47:29.946Z,28.10
2023-01-08T17:52:32.797Z,27.40
2023-01-08T17:57:35.055Z,29.23
2023-01-08T18:02:37.364Z,27.85
2023-01-08T18:07:39.655Z,29.10
2023-01-08T18:12:41.869Z,27.42
2023-01-08T18:17:44.069Z,28.25
2023-01-08T18:22:46.815Z,28.10
2023-01-08T18:27:49.043Z,27.83
2023-01-08T18:32:51.280Z,25.85
2023-01-08T18:37:55.543Z,25.92
2023-01-08T18:42:57.799Z,27.73
2023-01-08T18:48:00.010Z,26.13
2023-01-08T18:53:04.668Z,27.15
2023-01-08T18:58:06.937Z,26.83
2023-01-08T19:03:10.468Z,28.25
2023-01-08T19:08:12.686Z,28.27
2023-01-08T19:13:14.982Z,26.57
2023-01-08T19:18:18.457Z,28.10
2023-01-08T19:23:20.882Z,31.35
2023-01-08T19:28:24.006Z,32.47
2023-01-08T19:33:26.405Z,28.98
2023-01-08T19:38:28.945Z,29.63
2023-01-08T19:43:43.171Z,27.80
2023-01-08T19:48:45.632Z,29.40
2023-01-08T19:53:49.331Z,28.95
2023-01-08T19:58:51.505Z,28.62
2023-01-08T20:03:54.440Z,29.57
2023-01-08T20:09:06.181Z,29.92
2023-01-08T20:14:08.300Z,29.42
2023-01-08T20:19:10.402Z,28.52
2023-01-08T20:24:14.609Z,28.55
2023-01-08T20:29:18.230Z,22.83
2023-01-08T20:34:20.346Z,18.05
2023-01-08T20:39:22.992Z,16.20
2023-01-08T20:44:25.435Z,13.75
2023-01-08T20:49:27.992Z,13.48
2023-01-08T20:54:30.524Z,12.37
2023-01-08T20:59:32.787Z,13.05
2023-01-08T21:04:38.057Z,13.23
2023-01-08T21:09:40.467Z,13.95
2023-01-08T21:14:44.218Z,12.43
2023-01-08T21:19:46.636Z,12.87
2023-01-08T21:24:48.974Z,13.45
2023-01-08T21:29:52.421Z,13.30
2023-01-08T21:34:54.538Z,13.93
2023-01-08T21:39:59.709Z,13.45
2023-01-08T21:45:20.510Z,13.13
2023-01-08T21:50:24.985Z,13.35
2023-01-08T21:55:27.251Z,14.07
2023-01-08T22:00:29.531Z,13.52
2023-01-08T22:05:31.601Z,13.05
2023-01-08T22:10:33.732Z,14.73
2023-01-08T22:15:35.878Z,15.27
2023-01-08T22:20:38.064Z,15.27
2023-01-08T22:25:41.055Z,15.02
2023-01-08T22:30:43.551Z,15.45
2023-01-08T22:35:46.351Z,15.63
2023-01-08T22:40:48.422Z,15.23
2023-01-08T22:45:58.147Z,15.93
2023-01-08T22:51:03.661Z,16.33
2023-01-08T22:56:12.381Z,16.15
2023-01-08T23:01:21.203Z,15.53
2023-01-08T23:06:25.245Z,16.52
2023-01-08T23:11:27.751Z,15.48
2023-01-08T23:16:30.288Z,15.65
2023-01-08T23:21:32.399Z,15.70
2023-01-08T23:26:34.510Z,14.43
2023-01-08T23:31:38.345Z,15.73
2023-01-08T23:36:40.930Z,15.82
2023-01-08T23:41:43.069Z,15.85
2023-01-08T23:46:45.180Z,14.82
2023-01-08T23:51:47.326Z,15.97
2023-01-08T23:56:49.721Z,15.30
